sensor_id;sensor_type;location;lat;lon;timestamp;P1;durP1;ratioP1;P2;durP2;ratioP2
27979;SDS011;15315;50.836;4.430;2022-08-25T00:03:15;8.57;;;5.15;;
27979;SDS011;15315;50.836;4.430;2022-08-25T00:13:16;12.98;;;4.97;;
27979;SDS011;15315;50.836;4.430;2022-08-25T00:23:17;8.77;;;4.15;;
27979;SDS011;15315;50.836;4.430;2022-08-25T00:33:18;9.30;;;4.78;;
27979;SDS011;15315;50.836;4.430;2022-08-25T00:43:19;12.25;;;4.90;;
27979;SDS011;15315;50.836;4.430;2022-08-25T00:53:21;7.90;;;5.00;;
27979;SDS011;15315;50.836;4.430;2022-08-25T01:03:23;7.70;;;5.30;;
27979;SDS011;15315;50.836;4.430;2022-08-25T01:23:33;6.82;;;4.78;;
27979;SDS011;15315;50.836;4.430;2022-08-25T01:33:33;7.18;;;5.13;;
27979;SDS011;15315;50.836;4.430;2022-08-25T01:43:35;9.30;;;5.03;;
27979;SDS011;15315;50.836;4.430;2022-08-25T01:53:37;9.77;;;4.78;;
27979;SDS011;15315;50.836;4.430;2022-08-25T02:03:38;8.07;;;4.70;;
27979;SDS011;15315;50.836;4.430;2022-08-25T02:13:41;14.85;;;5.28;;
27979;SDS011;15315;50.836;4.430;2022-08-25T02:23:41;7.20;;;5.60;;
27979;SDS011;15315;50.836;4.430;2022-08-25T02:33:42;8.30;;;4.72;;
27979;SDS011;15315;50.836;4.430;2022-08-25T02:43:43;5.50;;;4.85;;
27979;SDS011;15315;50.836;4.430;2022-08-25T02:53:44;9.52;;;4.85;;
27979;SDS011;15315;50.836;4.430;2022-08-25T03:03:46;7.20;;;5.18;;
27979;SDS011;15315;50.836;4.430;2022-08-25T03:13:47;9.13;;;5.07;;
27979;SDS011;15315;50.836;4.430;2022-08-25T03:23:51;12.30;;;4.93;;
27979;SDS011;15315;50.836;4.430;2022-08-25T03:33:51;7.65;;;5.60;;
27979;SDS011;15315;50.836;4.430;2022-08-25T03:43:53;10.02;;;5.07;;
27979;SDS011;15315;50.836;4.430;2022-08-25T03:53:55;10.60;;;5.28;;
27979;SDS011;15315;50.836;4.430;2022-08-25T04:03:57;8.48;;;4.50;;
27979;SDS011;15315;50.836;4.430;2022-08-25T04:13:58;7.85;;;4.82;;
27979;SDS011;15315;50.836;4.430;2022-08-25T04:24:00;8.65;;;4.70;;
27979;SDS011;15315;50.836;4.430;2022-08-25T04:34:02;7.03;;;3.72;;
27979;SDS011;15315;50.836;4.430;2022-08-25T04:44:03;11.02;;;4.35;;
27979;SDS011;15315;50.836;4.430;2022-08-25T04:54:05;7.10;;;3.92;;
27979;SDS011;15315;50.836;4.430;2022-08-25T05:04:09;9.45;;;3.55;;
27979;SDS011;15315;50.836;4.430;2022-08-25T05:14:10;10.05;;;3.65;;
27979;SDS011;15315;50.836;4.430;2022-08-25T05:24:14;15.35;;;3.70;;
27979;SDS011;15315;50.836;4.430;2022-08-25T05:34:14;7.15;;;3.42;;
27979;SDS011;15315;50.836;4.430;2022-08-25T05:44:16;10.20;;;4.50;;
27979;SDS011;15315;50.836;4.430;2022-08-25T05:54:16;8.07;;;4.13;;
27979;SDS011;15315;50.836;4.430;2022-08-25T06:04:17;8.68;;;3.58;;
27979;SDS011;15315;50.836;4.430;2022-08-25T06:14:19;7.93;;;3.55;;
27979;SDS011;15315;50.836;4.430;2022-08-25T06:24:19;13.18;;;3.78;;
27979;SDS011;15315;50.836;4.430;2022-08-25T06:34:20;12.65;;;3.50;;
27979;SDS011;15315;50.836;4.430;2022-08-25T06:44:21;9.32;;;3.08;;
27979;SDS011;15315;50.836;4.430;2022-08-25T06:54:22;12.82;;;3.75;;
27979;SDS011;15315;50.836;4.430;2022-08-25T07:04:23;5.05;;;2.97;;
27979;SDS011;15315;50.836;4.430;2022-08-25T07:14:23;8.32;;;3.15;;
27979;SDS011;15315;50.836;4.430;2022-08-25T07:24:24;3.67;;;3.00;;
27979;SDS011;15315;50.836;4.430;2022-08-25T07:34:24;13.25;;;3.53;;
27979;SDS011;15315;50.836;4.430;2022-08-25T07:44:43;4.97;;;2.97;;
27979;SDS011;15315;50.836;4.430;2022-08-25T07:54:44;9.73;;;3.42;;
27979;SDS011;15315;50.836;4.430;2022-08-25T08:04:48;7.00;;;3.00;;
27979;SDS011;15315;50.836;4.430;2022-08-25T08:14:49;9.75;;;3.70;;
27979;SDS011;15315;50.836;4.430;2022-08-25T08:24:51;20.65;;;4.07;;
27979;SDS011;15315;50.836;4.430;2022-08-25T08:34:51;6.55;;;2.90;;
27979;SDS011;15315;50.836;4.430;2022-08-25T08:45:15;10.50;;;2.95;;
27979;SDS011;15315;50.836;4.430;2022-08-25T09:05:46;13.02;;;2.85;;
27979;SDS011;15315;50.836;4.430;2022-08-25T09:36:44;8.75;;;2.65;;
27979;SDS011;15315;50.836;4.430;2022-08-25T09:46:53;5.65;;;3.20;;
27979;SDS011;15315;50.836;4.430;2022-08-25T09:56:57;6.60;;;3.42;;
27979;SDS011;15315;50.836;4.430;2022-08-25T10:07:01;14.85;;;2.75;;
27979;SDS011;15315;50.836;4.430;2022-08-25T10:17:38;6.32;;;3.40;;
27979;SDS011;15315;50.836;4.430;2022-08-25T10:48:07;7.88;;;2.95;;
27979;SDS011;15315;50.836;4.430;2022-08-25T11:09:07;8.30;;;2.90;;
27979;SDS011;15315;50.836;4.430;2022-08-25T11:19:16;6.10;;;3.17;;
27979;SDS011;15315;50.836;4.430;2022-08-25T11:29:21;11.82;;;3.60;;
27979;SDS011;15315;50.836;4.430;2022-08-25T11:49:59;4.13;;;2.67;;
27979;SDS011;15315;50.836;4.430;2022-08-25T12:00:10;6.85;;;4.07;;
27979;SDS011;15315;50.836;4.430;2022-08-25T12:10:15;6.07;;;2.83;;
27979;SDS011;15315;50.836;4.430;2022-08-25T12:20:58;12.23;;;3.13;;
27979;SDS011;15315;50.836;4.430;2022-08-25T12:31:00;13.07;;;4.78;;
27979;SDS011;15315;50.836;4.430;2022-08-25T12:41:08;10.73;;;3.53;;
27979;SDS011;15315;50.836;4.430;2022-08-25T12:51:16;5.30;;;3.22;;
27979;SDS011;15315;50.836;4.430;2022-08-25T13:11:43;4.90;;;3.35;;
27979;SDS011;15315;50.836;4.430;2022-08-25T13:21:50;7.57;;;3.70;;
27979;SDS011;15315;50.836;4.430;2022-08-25T13:41:56;9.05;;;4.18;;
27979;SDS011;15315;50.836;4.430;2022-08-25T13:51:57;7.43;;;3.97;;
27979;SDS011;15315;50.836;4.430;2022-08-25T14:01:57;17.53;;;4.50;;
27979;SDS011;15315;50.836;4.430;2022-08-25T14:11:58;3.97;;;3.47;;
27979;SDS011;15315;50.836;4.430;2022-08-25T14:21:59;21.25;;;5.85;;
27979;SDS011;15315;50.836;4.430;2022-08-25T14:32:01;18.13;;;5.72;;
27979;SDS011;15315;50.836;4.430;2022-08-25T14:42:01;19.90;;;5.20;;
27979;SDS011;15315;50.836;4.430;2022-08-25T14:52:09;12.70;;;5.22;;
27979;SDS011;15315;50.836;4.430;2022-08-25T15:02:18;11.02;;;4.45;;
27979;SDS011;15315;50.836;4.430;2022-08-25T15:12:21;16.77;;;4.97;;
27979;SDS011;15315;50.836;4.430;2022-08-25T15:22:22;7.90;;;4.38;;
27979;SDS011;15315;50.836;4.430;2022-08-25T15:32:22;13.52;;;6.53;;
27979;SDS011;15315;50.836;4.430;2022-08-25T15:42:24;24.17;;;9.03;;
27979;SDS011;15315;50.836;4.430;2022-08-25T15:52:26;13.47;;;7.60;;
27979;SDS011;15315;50.836;4.430;2022-08-25T16:02:27;18.47;;;9.63;;
27979;SDS011;15315;50.836;4.430;2022-08-25T16:12:27;19.30;;;11.35;;
27979;SDS011;15315;50.836;4.430;2022-08-25T16:22:27;26.05;;;13.48;;
27979;SDS011;15315;50.836;4.430;2022-08-25T16:32:28;20.65;;;14.13;;
27979;SDS011;15315;50.836;4.430;2022-08-25T16:42:28;25.00;;;13.85;;
27979;SDS011;15315;50.836;4.430;2022-08-25T16:52:29;20.77;;;13.00;;
27979;SDS011;15315;50.836;4.430;2022-08-25T17:02:53;26.42;;;12.10;;
27979;SDS011;15315;50.836;4.430;2022-08-25T17:12:54;23.05;;;10.38;;
27979;SDS011;15315;50.836;4.430;2022-08-25T17:22:55;21.45;;;11.88;;
27979;SDS011;15315;50.836;4.430;2022-08-25T17:32:56;21.77;;;10.32;;
27979;SDS011;15315;50.836;4.430;2022-08-25T17:42:56;14.63;;;9.88;;
27979;SDS011;15315;50.836;4.430;2022-08-25T17:52:57;19.95;;;10.48;;
27979;SDS011;15315;50.836;4.430;2022-08-25T18:02:58;21.75;;;13.10;;
27979;SDS011;15315;50.836;4.430;2022-08-25T18:12:59;20.48;;;11.65;;
27979;SDS011;15315;50.836;4.430;2022-08-25T18:23:01;21.52;;;13.65;;
27979;SDS011;15315;50.836;4.430;2022-08-25T18:33:01;31.05;;;17.38;;
27979;SDS011;15315;50.836;4.430;2022-08-25T18:43:04;29.85;;;18.27;;
27979;SDS011;15315;50.836;4.430;2022-08-25T18:53:06;24.90;;;17.97;;
27979;SDS011;15315;50.836;4.430;2022-08-25T19:03:07;28.23;;;14.73;;
27979;SDS011;15315;50.836;4.430;2022-08-25T19:13:09;30.58;;;12.65;;
27979;SDS011;15315;50.836;4.430;2022-08-25T19:23:10;24.67;;;8.93;;
27979;SDS011;15315;50.836;4.430;2022-08-25T19:33:11;24.02;;;9.48;;
27979;SDS011;15315;50.836;4.430;2022-08-25T19:43:12;18.88;;;7.68;;
27979;SDS011;15315;50.836;4.430;2022-08-25T19:53:12;19.83;;;7.40;;
27979;SDS011;15315;50.836;4.430;2022-08-25T20:03:13;20.30;;;8.27;;
27979;SDS011;15315;50.836;4.430;2022-08-25T20:13:14;18.15;;;7.45;;
27979;SDS011;15315;50.836;4.430;2022-08-25T20:23:14;16.52;;;7.28;;
27979;SDS011;15315;50.836;4.430;2022-08-25T20:33:33;15.32;;;6.10;;
27979;SDS011;15315;50.836;4.430;2022-08-25T20:43:34;18.23;;;4.40;;
27979;SDS011;15315;50.836;4.430;2022-08-25T20:53:35;14.32;;;3.58;;
27979;SDS011;15315;50.836;4.430;2022-08-25T21:03:37;12.00;;;3.17;;
27979;SDS011;15315;50.836;4.430;2022-08-25T21:13:38;15.60;;;3.85;;
27979;SDS011;15315;50.836;4.430;2022-08-25T21:23:39;9.13;;;3.20;;
27979;SDS011;15315;50.836;4.430;2022-08-25T21:33:41;13.60;;;3.90;;
27979;SDS011;15315;50.836;4.430;2022-08-25T21:43:42;15.75;;;4.47;;
27979;SDS011;15315;50.836;4.430;2022-08-25T21:53:44;14.60;;;6.15;;
27979;SDS011;15315;50.836;4.430;2022-08-25T22:03:45;20.73;;;5.90;;
27979;SDS011;15315;50.836;4.430;2022-08-25T22:13:46;16.67;;;6.13;;
27979;SDS011;15315;50.836;4.430;2022-08-25T22:23:47;17.33;;;5.78;;
27979;SDS011;15315;50.836;4.430;2022-08-25T22:33:48;16.77;;;4.22;;
27979;SDS011;15315;50.836;4.430;2022-08-25T22:43:50;15.85;;;4.30;;
27979;SDS011;15315;50.836;4.430;2022-08-25T22:53:52;15.73;;;4.10;;
27979;SDS011;15315;50.836;4.430;2022-08-25T23:03:52;12.45;;;3.22;;
27979;SDS011;15315;50.836;4.430;2022-08-25T23:13:53;10.75;;;2.95;;
27979;SDS011;15315;50.836;4.430;2022-08-25T23:23:55;9.02;;;2.55;;
27979;SDS011;15315;50.836;4.430;2022-08-25T23:33:56;14.77;;;2.70;;
27979;SDS011;15315;50.836;4.430;2022-08-25T23:43:57;14.02;;;2.90;;
27979;SDS011;15315;50.836;4.430;2022-08-25T23:53:57;8.43;;;2.75;;
